createdAt,value
2023-02-11T00:01:19.946Z,103415.38
2023-02-11T00:03:46.972Z,103421.28
2023-02-11T00:06:14.090Z,103419.59
2023-02-11T00:08:41.092Z,103416.81
2023-02-11T00:11:09.938Z,103423.31
2023-02-11T00:13:36.953Z,103423.72
2023-02-11T00:16:13.836Z,103426.97
2023-02-11T00:18:40.855Z,103429.84
2023-02-11T00:21:19.458Z,103413.66
2023-02-11T00:23:47.515Z,103406.44
2023-02-11T00:26:21.413Z,103408.56
2023-02-11T00:28:50.781Z,103396.22
2023-02-11T00:31:21.364Z,103398.66
2023-02-11T00:33:48.950Z,103395.47
2023-02-11T00:36:20.180Z,103394.91
2023-02-11T00:38:48.562Z,103390.13
2023-02-11T00:41:16.862Z,103391.69
2023-02-11T00:43:43.956Z,103387.47
2023-02-11T00:46:11.388Z,103382.56
2023-02-11T00:48:38.509Z,103390.59
2023-02-11T00:51:06.150Z,103380.56
2023-02-11T00:53:34.282Z,103379.53
2023-02-11T00:56:01.383Z,103380.34
2023-02-11T00:58:29.900Z,103370.28
2023-02-11T01:00:57.374Z,103357.78
2023-02-11T01:03:24.449Z,103359.88
2023-02-11T01:05:51.928Z,103360.00
2023-02-11T01:08:19.680Z,103362.16
2023-02-11T01:10:58.439Z,103367.97
2023-02-11T01:13:27.368Z,103364.75
2023-02-11T01:15:55.826Z,103367.91
2023-02-11T01:18:23.293Z,103364.97
2023-02-11T01:20:52.375Z,103374.22
2023-02-11T01:23:19.854Z,103370.91
2023-02-11T01:25:47.723Z,103363.75
2023-02-11T01:28:21.938Z,103360.00
2023-02-11T01:30:49.337Z,103352.84
2023-02-11T01:33:16.714Z,103356.28
2023-02-11T01:35:44.594Z,103353.28
2023-02-11T01:38:24.585Z,103353.69
2023-02-11T01:40:58.482Z,103362.44
2023-02-11T01:43:27.669Z,103350.97
2023-02-11T01:46:25.068Z,103355.25
2023-02-11T01:48:59.311Z,103362.09
2023-02-11T01:51:53.277Z,103363.97
2023-02-11T01:54:43.392Z,103363.75
2023-02-11T01:57:22.563Z,103365.81
2023-02-11T02:00:05.211Z,103367.56
2023-02-11T02:02:50.839Z,103366.78
2023-02-11T02:05:20.622Z,103370.78
2023-02-11T02:08:07.359Z,103368.03
2023-02-11T02:10:36.857Z,103368.69
2023-02-11T02:13:03.987Z,103364.56
2023-02-11T02:15:34.394Z,103365.03
2023-02-11T02:18:31.931Z,103358.91
2023-02-11T02:21:33.950Z,103355.41
2023-02-11T02:24:42.162Z,103349.53
2023-02-11T02:27:26.029Z,103336.31
2023-02-11T02:30:49.488Z,103336.56
2023-02-11T02:33:33.971Z,103339.13
2023-02-11T02:36:29.518Z,103338.53
2023-02-11T02:39:12.612Z,103335.66
2023-02-11T02:41:40.243Z,103321.25
2023-02-11T02:44:09.302Z,103322.69
2023-02-11T02:46:37.165Z,103326.91
2023-02-11T02:49:07.224Z,103329.19
2023-02-11T02:52:06.272Z,103315.47
2023-02-11T02:55:16.366Z,103308.59
2023-02-11T02:58:13.732Z,103297.50
2023-02-11T03:01:01.820Z,103291.63
2023-02-11T03:04:05.233Z,103300.38
2023-02-11T03:07:06.221Z,103302.59
2023-02-11T03:09:51.652Z,103302.69
2023-02-11T03:12:20.128Z,103301.84
2023-02-11T03:14:50.225Z,103295.22
2023-02-11T03:17:18.017Z,103299.16
2023-02-11T03:19:48.381Z,103300.59
2023-02-11T03:22:26.100Z,103306.97
2023-02-11T03:24:53.904Z,103312.09
2023-02-11T03:27:41.861Z,103304.84
2023-02-11T03:30:28.750Z,103292.25
2023-02-11T03:33:10.748Z,103300.56
2023-02-11T03:35:57.953Z,103302.16
2023-02-11T03:38:38.708Z,103308.16
2023-02-11T03:41:08.298Z,103305.34
2023-02-11T03:43:42.129Z,103308.25
2023-02-11T03:46:11.618Z,103300.25
2023-02-11T03:48:53.007Z,103303.72
2023-02-11T03:51:22.314Z,103305.91
2023-02-11T03:53:53.348Z,103309.97
2023-02-11T03:56:26.587Z,103307.41
2023-02-11T03:58:53.861Z,103312.50
2023-02-11T04:01:24.225Z,103308.06
2023-02-11T04:03:53.956Z,103309.97
2023-02-11T04:06:21.079Z,103307.34
2023-02-11T04:08:48.218Z,103316.31
2023-02-11T04:11:15.217Z,103317.53
2023-02-11T04:13:42.321Z,103311.25
2023-02-11T04:16:09.311Z,103313.75
2023-02-11T04:18:49.857Z,103313.19
2023-02-11T04:21:16.810Z,103317.00
2023-02-11T04:23:43.911Z,103317.06
2023-02-11T04:26:10.972Z,103315.25
2023-02-11T04:28:37.969Z,103325.56
2023-02-11T04:31:05.451Z,103304.16
2023-02-11T04:33:32.512Z,103314.00
2023-02-11T04:35:59.511Z,103317.16
2023-02-11T04:38:26.809Z,103333.09
2023-02-11T04:40:53.763Z,103328.56
2023-02-11T04:43:20.738Z,103331.19
2023-02-11T04:45:47.864Z,103333.84
2023-02-11T04:48:14.934Z,103328.06
2023-02-11T04:50:42.033Z,103340.44
2023-02-11T04:53:09.064Z,103344.97
2023-02-11T04:55:36.040Z,103339.69
2023-02-11T04:58:02.991Z,103349.06
2023-02-11T05:00:30.192Z,103329.91
2023-02-11T05:02:57.229Z,103339.78
2023-02-11T05:05:24.196Z,103335.75
2023-02-11T05:07:51.165Z,103340.31
2023-02-11T05:10:18.277Z,103344.53
2023-02-11T05:12:45.222Z,103341.38
2023-02-11T05:15:12.206Z,103328.94
2023-02-11T05:17:39.150Z,103334.44
2023-02-11T05:20:06.806Z,103317.38
2023-02-11T05:22:33.737Z,103322.56
2023-02-11T05:25:00.707Z,103326.16
2023-02-11T05:27:27.698Z,103324.00
2023-02-11T05:29:54.647Z,103315.19
2023-02-11T05:32:21.652Z,103310.88
2023-02-11T05:34:48.613Z,103306.91
2023-02-11T05:37:15.714Z,103300.00
2023-02-11T05:39:42.791Z,103304.41
2023-02-11T05:42:09.862Z,103307.47
2023-02-11T05:44:36.998Z,103318.69
2023-02-11T05:47:04.259Z,103308.50
2023-02-11T05:49:31.441Z,103313.72
2023-02-11T05:51:58.393Z,103319.28
2023-02-11T05:54:25.458Z,103306.34
2023-02-11T05:56:52.464Z,103306.50
2023-02-11T05:59:19.479Z,103309.44
2023-02-11T06:01:46.590Z,103293.16
2023-02-11T06:04:13.663Z,103298.34
2023-02-11T06:06:40.703Z,103290.97
2023-02-11T06:09:07.689Z,103297.94
2023-02-11T06:11:34.670Z,103286.94
2023-02-11T06:14:01.910Z,103292.69
2023-02-11T06:16:29.080Z,103284.78
2023-02-11T06:18:56.272Z,103289.00
2023-02-11T06:21:26.465Z,103281.41
2023-02-11T06:23:57.793Z,103283.09
2023-02-11T06:26:24.845Z,103287.06
2023-02-11T06:28:51.932Z,103282.34
2023-02-11T06:31:19.256Z,103273.97
2023-02-11T06:33:46.362Z,103278.06
2023-02-11T06:36:20.575Z,103276.03
2023-02-11T06:38:48.630Z,103283.81
2023-02-11T06:41:20.085Z,103280.22
2023-02-11T06:43:47.781Z,103288.31
2023-02-11T06:46:15.719Z,103281.66
2023-02-11T06:48:44.831Z,103277.75
2023-02-11T06:51:13.784Z,103288.88
2023-02-11T06:53:47.641Z,103291.56
2023-02-11T06:56:24.125Z,103300.84
2023-02-11T06:58:55.508Z,103294.09
2023-02-11T07:01:24.207Z,103297.84
2023-02-11T07:03:52.042Z,103296.25
2023-02-11T07:06:27.748Z,103303.84
2023-02-11T07:08:56.488Z,103316.66
2023-02-11T07:11:28.726Z,103305.06
2023-02-11T07:14:01.701Z,103309.44
2023-02-11T07:16:28.936Z,103312.09
2023-02-11T07:18:55.926Z,103312.28
2023-02-11T07:21:24.386Z,103313.75
2023-02-11T07:23:51.558Z,103331.09
2023-02-11T07:26:23.096Z,103332.28
2023-02-11T07:28:51.493Z,103339.44
2023-02-11T07:31:28.271Z,103343.16
2023-02-11T07:33:59.961Z,103341.97
2023-02-11T07:36:29.128Z,103345.25
2023-02-11T07:38:59.094Z,103348.22
2023-02-11T07:41:27.476Z,103347.34
2023-02-11T07:43:54.786Z,103354.47
2023-02-11T07:46:25.445Z,103339.56
2023-02-11T07:48:53.448Z,103347.00
2023-02-11T07:51:27.191Z,103349.91
2023-02-11T07:53:55.812Z,103343.94
2023-02-11T07:56:23.717Z,103359.97
2023-02-11T07:58:51.372Z,103357.22
2023-02-11T08:01:25.926Z,103360.06
2023-02-11T08:03:53.271Z,103345.88
2023-02-11T08:06:23.608Z,103362.50
2023-02-11T08:08:50.967Z,103350.69
2023-02-11T08:11:27.451Z,103355.34
2023-02-11T08:13:57.171Z,103351.72
2023-02-11T08:16:31.607Z,103358.22
2023-02-11T08:19:03.615Z,103352.91
2023-02-11T08:21:30.826Z,103368.38
2023-02-11T08:23:58.481Z,103371.25
2023-02-11T08:26:28.877Z,103366.13
2023-02-11T08:28:58.246Z,103391.44
2023-02-11T08:31:33.351Z,103371.34
2023-02-11T08:34:03.376Z,103362.50
2023-02-11T08:36:36.901Z,103371.25
2023-02-11T08:39:19.277Z,103376.66
2023-02-11T08:41:54.784Z,103372.31
2023-02-11T08:44:23.427Z,103376.28
2023-02-11T08:46:51.246Z,103379.34
2023-02-11T08:49:19.046Z,103371.59
2023-02-11T08:51:47.231Z,103373.31
2023-02-11T08:54:15.328Z,103373.59
2023-02-11T08:56:42.691Z,103385.88
2023-02-11T08:59:17.123Z,103391.16
2023-02-11T09:01:44.645Z,103384.78
2023-02-11T09:04:11.776Z,103388.31
2023-02-11T09:06:38.902Z,103385.78
2023-02-11T09:09:06.269Z,103385.59
2023-02-11T09:11:35.725Z,103377.06
2023-02-11T09:14:04.581Z,103387.66
2023-02-11T09:16:35.785Z,103396.13
2023-02-11T09:19:05.091Z,103401.22
2023-02-11T09:21:32.352Z,103414.69
2023-02-11T09:23:59.372Z,103419.41
2023-02-11T09:26:30.467Z,103405.16
2023-02-11T09:28:58.026Z,103402.00
2023-02-11T09:31:28.324Z,103419.41
2023-02-11T09:34:06.293Z,103426.31
2023-02-11T09:36:38.581Z,103421.81
2023-02-11T09:39:11.489Z,103418.00
2023-02-11T09:42:08.697Z,103427.13
2023-02-11T09:44:38.159Z,103427.22
2023-02-11T09:47:29.386Z,103415.59
2023-02-11T09:50:11.671Z,103427.81
2023-02-11T09:52:45.042Z,103420.34
2023-02-11T09:55:21.649Z,103428.94
2023-02-11T09:57:48.889Z,103433.44
2023-02-11T10:00:33.411Z,103437.81
2023-02-11T10:03:14.579Z,103436.00
2023-02-11T10:05:53.378Z,103431.19
2023-02-11T10:08:59.320Z,103432.47
2023-02-11T10:12:09.335Z,103433.81
2023-02-11T10:15:06.202Z,103440.59
2023-02-11T10:18:22.032Z,103444.03
2023-02-11T10:21:23.444Z,103441.63
2023-02-11T10:23:56.774Z,103436.25
2023-02-11T10:26:24.207Z,103438.34
2023-02-11T10:28:54.587Z,103443.09
2023-02-11T10:31:38.381Z,103444.72
2023-02-11T10:34:10.187Z,103449.91
2023-02-11T10:36:41.285Z,103449.28
2023-02-11T10:39:16.912Z,103454.97
2023-02-11T10:41:59.673Z,103454.25
2023-02-11T10:44:38.401Z,103464.53
2023-02-11T10:47:29.923Z,103462.75
2023-02-11T10:50:03.302Z,103449.28
2023-02-11T10:52:31.372Z,103455.81
2023-02-11T10:55:16.603Z,103455.16
2023-02-11T10:57:52.719Z,103451.03
2023-02-11T11:00:41.295Z,103456.22
2023-02-11T11:03:21.950Z,103456.31
2023-02-11T11:05:53.397Z,103445.81
2023-02-11T11:08:20.658Z,103448.50
2023-02-11T11:11:04.647Z,103439.50
2023-02-11T11:13:41.790Z,103446.59
2023-02-11T11:16:12.094Z,103455.38
2023-02-11T11:18:47.818Z,103448.50
2023-02-11T11:21:35.995Z,103454.97
2023-02-11T11:24:04.375Z,103449.38
2023-02-11T11:26:54.284Z,103454.53
2023-02-11T11:29:46.064Z,103460.78
2023-02-11T11:32:20.743Z,103460.22
2023-02-11T11:34:57.253Z,103442.78
2023-02-11T11:37:28.318Z,103438.06
2023-02-11T11:40:13.715Z,103440.56
2023-02-11T11:42:41.040Z,103453.84
2023-02-11T11:45:19.756Z,103451.47
2023-02-11T11:47:58.354Z,103450.56
2023-02-11T11:50:36.061Z,103453.84
2023-02-11T11:53:12.380Z,103464.22
2023-02-11T11:56:23.441Z,103453.88
2023-02-11T11:58:50.931Z,103454.22
2023-02-11T12:01:33.978Z,103453.59
2023-02-11T12:04:39.056Z,103454.66
2023-02-11T12:07:17.539Z,103451.78
2023-02-11T12:10:05.643Z,103443.97
2023-02-11T12:13:20.148Z,103446.31
2023-02-11T12:15:57.417Z,103456.41
2023-02-11T12:18:47.289Z,103457.47
2023-02-11T12:21:52.259Z,103448.00
2023-02-11T12:25:19.339Z,103448.81
2023-02-11T12:28:16.297Z,103456.22
2023-02-11T12:31:01.383Z,103469.78
2023-02-11T12:34:11.254Z,103450.50
2023-02-11T12:37:07.903Z,103454.72
2023-02-11T12:39:51.144Z,103455.91
2023-02-11T12:42:55.965Z,103464.44
2023-02-11T12:45:45.530Z,103463.91
2023-02-11T12:49:06.137Z,103462.75
2023-02-11T12:52:10.593Z,103462.75
2023-02-11T12:55:31.948Z,103466.91
2023-02-11T12:58:00.538Z,103459.72
2023-02-11T13:00:47.122Z,103461.94
2023-02-11T13:03:34.383Z,103462.44
2023-02-11T13:06:53.981Z,103468.94
2023-02-11T13:09:27.034Z,103464.63
2023-02-11T13:12:20.884Z,103471.16
2023-02-11T13:14:50.357Z,103447.69
2023-02-11T13:17:31.572Z,103444.19
2023-02-11T13:20:32.957Z,103441.56
2023-02-11T13:23:47.153Z,103437.22
2023-02-11T13:26:23.468Z,103441.56
2023-02-11T13:29:30.453Z,103440.59
2023-02-11T13:32:09.418Z,103452.72
2023-02-11T13:34:42.420Z,103443.22
2023-02-11T13:37:36.697Z,103439.50
2023-02-11T13:40:26.033Z,103438.22
2023-02-11T13:42:57.408Z,103435.28
2023-02-11T13:45:36.537Z,103438.91
2023-02-11T13:48:14.029Z,103430.34
2023-02-11T13:50:51.185Z,103438.25
2023-02-11T13:53:19.270Z,103432.94
2023-02-11T13:55:50.043Z,103430.72
2023-02-11T13:58:40.324Z,103437.06
2023-02-11T14:01:09.093Z,103434.56
2023-02-11T14:03:57.710Z,103434.84
2023-02-11T14:07:07.109Z,103434.28
2023-02-11T14:09:38.911Z,103432.06
2023-02-11T14:12:30.203Z,103423.81
2023-02-11T14:15:07.880Z,103427.75
2023-02-11T14:17:35.291Z,103426.88
2023-02-11T14:20:05.701Z,103428.25
2023-02-11T14:22:49.666Z,103430.47
2023-02-11T14:25:25.784Z,103414.53
2023-02-11T14:28:15.460Z,103403.78
2023-02-11T14:31:10.719Z,103425.16
2023-02-11T14:34:06.730Z,103413.34
2023-02-11T14:37:13.451Z,103418.59
2023-02-11T14:39:54.991Z,103413.63
2023-02-11T14:42:26.893Z,103419.31
2023-02-11T14:44:57.761Z,103424.72
2023-02-11T14:47:52.678Z,103422.69
2023-02-11T14:50:35.012Z,103416.69
2023-02-11T14:53:03.545Z,103427.06
2023-02-11T14:55:38.122Z,103430.22
2023-02-11T14:58:30.118Z,103431.72
2023-02-11T15:01:19.083Z,103434.25
2023-02-11T15:03:50.037Z,103437.94
2023-02-11T15:06:24.612Z,103430.31
2023-02-11T15:09:01.979Z,103427.53
2023-02-11T15:11:35.203Z,103435.97
2023-02-11T15:14:32.985Z,103424.81
2023-02-11T15:17:06.356Z,103432.63
2023-02-11T15:19:41.817Z,103429.22
2023-02-11T15:22:30.262Z,103435.34
2023-02-11T15:25:07.286Z,103427.03
2023-02-11T15:27:58.664Z,103429.06
2023-02-11T15:30:30.803Z,103428.69
2023-02-11T15:33:03.584Z,103425.53
2023-02-11T15:35:36.641Z,103430.06
2023-02-11T15:38:04.911Z,103434.59
2023-02-11T15:40:36.047Z,103430.63
2023-02-11T15:43:07.082Z,103426.09
2023-02-11T15:46:06.065Z,103431.41
2023-02-11T15:48:43.108Z,103432.16
2023-02-11T15:51:23.166Z,103428.63
2023-02-11T15:53:56.937Z,103433.34
2023-02-11T15:56:33.349Z,103435.88
2023-02-11T15:59:12.962Z,103433.94
2023-02-11T16:01:40.596Z,103430.22
2023-02-11T16:04:20.960Z,103433.56
2023-02-11T16:06:49.320Z,103430.19
2023-02-11T16:09:16.149Z,103434.94
2023-02-11T16:11:49.177Z,103437.19
2023-02-11T16:14:31.029Z,103447.47
2023-02-11T16:17:27.928Z,103464.34
2023-02-11T16:19:55.474Z,103462.75
2023-02-11T16:22:30.254Z,103459.81
2023-02-11T16:24:59.551Z,103460.78
2023-02-11T16:27:39.997Z,103465.66
2023-02-11T16:30:29.796Z,103469.34
2023-02-11T16:32:56.755Z,103465.75
2023-02-11T16:35:23.760Z,103466.53
2023-02-11T16:37:50.782Z,103460.97
2023-02-11T16:40:19.074Z,103466.03
2023-02-11T16:42:46.011Z,103471.59
2023-02-11T16:45:13.706Z,103470.34
2023-02-11T16:47:42.508Z,103463.91
2023-02-11T16:50:22.539Z,103458.44
2023-02-11T16:52:50.178Z,103472.28
2023-02-11T16:55:17.368Z,103473.81
2023-02-11T16:57:44.429Z,103475.31
2023-02-11T17:00:16.025Z,103492.53
2023-02-11T17:02:43.542Z,103487.47
2023-02-11T17:05:20.340Z,103491.13
2023-02-11T17:07:47.638Z,103489.56
2023-02-11T17:10:23.509Z,103490.94
2023-02-11T17:12:51.324Z,103494.16
2023-02-11T17:15:18.382Z,103500.28
2023-02-11T17:17:45.949Z,103507.28
2023-02-11T17:20:14.478Z,103501.28
2023-02-11T17:22:41.660Z,103503.94
2023-02-11T17:25:09.067Z,103502.66
2023-02-11T17:27:36.094Z,103503.72
2023-02-11T17:30:03.480Z,103493.38
2023-02-11T17:32:30.457Z,103502.88
2023-02-11T17:34:57.416Z,103500.94
2023-02-11T17:37:25.227Z,103498.13
2023-02-11T17:39:52.171Z,103507.94
2023-02-11T17:42:19.302Z,103506.25
2023-02-11T17:44:46.783Z,103508.47
2023-02-11T17:47:14.207Z,103511.41
2023-02-11T17:49:41.569Z,103518.72
2023-02-11T17:52:08.809Z,103519.69
2023-02-11T17:54:35.780Z,103521.94
2023-02-11T17:57:03.580Z,103525.56
2023-02-11T17:59:35.335Z,103519.56
2023-02-11T18:02:06.289Z,103521.44
2023-02-11T18:04:33.646Z,103522.78
2023-02-11T18:07:00.716Z,103523.81
2023-02-11T18:09:27.659Z,103529.50
2023-02-11T18:11:55.385Z,103520.50
2023-02-11T18:14:23.104Z,103522.41
2023-02-11T18:16:53.593Z,103533.00
2023-02-11T18:19:21.548Z,103535.94
2023-02-11T18:21:51.008Z,103535.31
2023-02-11T18:24:18.837Z,103530.28
2023-02-11T18:26:45.804Z,103537.41
2023-02-11T18:29:12.756Z,103548.97
2023-02-11T18:31:39.999Z,103541.47
2023-02-11T18:34:10.596Z,103541.81
2023-02-11T18:36:37.633Z,103544.09
2023-02-11T18:39:06.130Z,103555.16
2023-02-11T18:41:33.424Z,103543.00
2023-02-11T18:44:03.700Z,103545.75
2023-02-11T18:46:31.368Z,103545.81
2023-02-11T18:48:58.429Z,103545.53
2023-02-11T18:51:25.924Z,103548.16
2023-02-11T18:53:53.140Z,103550.44
2023-02-11T18:56:22.851Z,103550.00
2023-02-11T18:58:51.489Z,103549.47
2023-02-11T19:01:24.407Z,103555.22
2023-02-11T19:03:51.855Z,103558.09
2023-02-11T19:06:25.416Z,103557.53
2023-02-11T19:08:55.910Z,103552.44
2023-02-11T19:11:48.409Z,103555.97
2023-02-11T19:14:19.805Z,103556.34
2023-02-11T19:16:50.236Z,103555.44
2023-02-11T19:19:19.313Z,103557.56
2023-02-11T19:21:47.359Z,103559.06
2023-02-11T19:24:16.302Z,103565.81
2023-02-11T19:26:43.380Z,103559.91
2023-02-11T19:29:10.692Z,103562.75
2023-02-11T19:31:37.920Z,103559.00
2023-02-11T19:34:07.419Z,103567.38
2023-02-11T19:36:35.031Z,103571.25
2023-02-11T19:39:03.832Z,103574.72
2023-02-11T19:41:32.335Z,103573.19
2023-02-11T19:44:00.194Z,103569.22
2023-02-11T19:46:31.893Z,103572.13
2023-02-11T19:49:00.818Z,103575.03
2023-02-11T19:51:28.594Z,103574.06
2023-02-11T19:53:55.616Z,103574.44
2023-02-11T19:56:23.166Z,103573.81
2023-02-11T19:58:50.313Z,103576.22
2023-02-11T20:01:20.307Z,103571.69
2023-02-11T20:03:51.931Z,103583.44
2023-02-11T20:06:38.898Z,103571.69
2023-02-11T20:09:11.346Z,103580.75
2023-02-11T20:11:39.114Z,103572.63
2023-02-11T20:14:10.614Z,103578.25
2023-02-11T20:16:48.079Z,103580.16
2023-02-11T20:19:19.502Z,103584.94
2023-02-11T20:21:48.914Z,103576.19
2023-02-11T20:24:18.033Z,103585.00
2023-02-11T20:26:46.910Z,103583.63
2023-02-11T20:29:15.710Z,103588.47
2023-02-11T20:31:43.172Z,103585.69
2023-02-11T20:34:12.115Z,103585.59
2023-02-11T20:36:41.600Z,103593.63
2023-02-11T20:39:10.737Z,103589.72
2023-02-11T20:41:40.992Z,103595.13
2023-02-11T20:44:10.577Z,103600.66
2023-02-11T20:46:40.714Z,103600.06
2023-02-11T20:49:09.956Z,103592.97
2023-02-11T20:51:37.454Z,103598.72
2023-02-11T20:54:06.410Z,103600.16
2023-02-11T20:56:36.890Z,103602.44
2023-02-11T20:59:06.108Z,103598.50
2023-02-11T21:01:42.818Z,103597.53
2023-02-11T21:04:20.568Z,103599.56
2023-02-11T21:06:52.346Z,103595.25
2023-02-11T21:09:23.406Z,103594.16
2023-02-11T21:11:53.194Z,103604.25
2023-02-11T21:14:22.367Z,103611.34
2023-02-11T21:16:50.396Z,103611.06
2023-02-11T21:19:17.430Z,103612.22
2023-02-11T21:21:44.730Z,103606.47
2023-02-11T21:24:12.275Z,103600.75
2023-02-11T21:26:40.000Z,103610.19
2023-02-11T21:29:08.305Z,103610.06
2023-02-11T21:31:36.925Z,103606.94
2023-02-11T21:34:05.063Z,103605.25
2023-02-11T21:36:32.212Z,103601.44
2023-02-11T21:39:01.693Z,103610.28
2023-02-11T21:41:29.057Z,103609.44
2023-02-11T21:43:56.590Z,103619.28
2023-02-11T21:46:23.581Z,103625.75
2023-02-11T21:48:51.038Z,103626.38
2023-02-11T21:51:24.461Z,103620.94
2023-02-11T21:53:57.890Z,103614.22
2023-02-11T21:56:28.138Z,103621.66
2023-02-11T21:58:57.059Z,103625.63
2023-02-11T22:01:31.199Z,103623.63
2023-02-11T22:03:58.932Z,103631.53
2023-02-11T22:06:31.057Z,103627.69
2023-02-11T22:08:59.456Z,103626.00
2023-02-11T22:11:26.606Z,103629.09
2023-02-11T22:13:56.294Z,103625.00
2023-02-11T22:16:24.552Z,103633.00
2023-02-11T22:18:52.014Z,103621.47
2023-02-11T22:21:22.211Z,103624.09
2023-02-11T22:23:49.905Z,103621.31
2023-02-11T22:26:25.411Z,103625.50
2023-02-11T22:28:53.793Z,103622.66
2023-02-11T22:31:31.693Z,103622.16
2023-02-11T22:34:00.198Z,103630.81
2023-02-11T22:36:30.835Z,103629.59
2023-02-11T22:39:03.328Z,103629.88
2023-02-11T22:41:30.625Z,103626.47
2023-02-11T22:43:57.910Z,103628.41
2023-02-11T22:46:24.981Z,103631.16
2023-02-11T22:48:53.448Z,103631.53
2023-02-11T22:51:24.356Z,103639.44
2023-02-11T22:53:54.978Z,103635.63
2023-02-11T22:56:22.839Z,103632.25
2023-02-11T22:58:50.864Z,103632.50
2023-02-11T23:01:18.833Z,103630.22
2023-02-11T23:03:46.044Z,103636.47
2023-02-11T23:06:13.173Z,103633.22
2023-02-11T23:08:42.944Z,103636.59
2023-02-11T23:11:17.961Z,103635.50
2023-02-11T23:13:46.962Z,103636.34
2023-02-11T23:16:19.026Z,103642.09
2023-02-11T23:18:48.616Z,103639.59
2023-02-11T23:21:23.583Z,103633.34
2023-02-11T23:24:03.037Z,103627.69
2023-02-11T23:26:30.549Z,103623.97
2023-02-11T23:28:59.235Z,103634.69
2023-02-11T23:31:37.971Z,103632.16
2023-02-11T23:34:06.277Z,103636.97
2023-02-11T23:36:33.650Z,103632.59
2023-02-11T23:39:01.699Z,103631.63
2023-02-11T23:41:28.791Z,103636.84
2023-02-11T23:43:57.996Z,103637.19
2023-02-11T23:46:27.149Z,103636.69
2023-02-11T23:48:54.795Z,103637.53
2023-02-11T23:51:22.975Z,103636.94
2023-02-11T23:53:52.947Z,103634.13
2023-02-11T23:56:26.815Z,103635.72
2023-02-11T23:58:57.712Z,103631.00
